Main page
METAR-TAF:

METAR-TAF

Airports :

Abadan-Ayatollah Jami International Airport

Abadan, Iran

latitude: 30-22N, longitude: 048-15E, elevation: 3 m

Current weather observation

The report was made 1 hour and 5 minutes ago, at 07:00 UTC
Wind 8 kt from the West/Northwest
Temperature 39°C
Humidity 19%
Pressure 1001 hPa
Visibility: 8000 m

METAR: OIAA 250700Z 30008KT 8000 NSC 39/11 Q1001

Time: 12:35 (08:05 UTC)

Forecast

The report was made 2 hours and 35 minutes ago, at 05:30 UTC
Forecast valid from 25 at 06 UTC to 26 at 12 UTC
Wind 14 kt from the West/Northwest
Visibility: 7000 m
Becoming
from 25 at 08 UTC to 25 at 10 UTC
Visibility: 3000 m
widespread dust
Becoming
from 25 at 16 UTC to 25 at 18 UTC
Visibility: 6000 m
Becoming
from 26 at 04 UTC to 26 at 12 UTC
Wind 19 kt from the West/Northwest
Visibility: 3000 m
widespread dust

TAF: OIAA 250530Z 2506/2612 30007MPS 7000 NSC BECMG 2508/2510 3000 DU BECMG 2516/2518 6000 BECMG 2604/2612 30010MPS 3000 DU

Weather observations and forecasts of more than 4000 airports (METAR and TAF reports).

The available stations are represented by yellow and red dots on the map.

Hover mouse over dot to see the name of the station.

Then click to see weather observations and forecasts.

To change the map : click on the green buttons with a black cross to zoom in, on the green button with a dash to zoom out, or on the green arrows for adjacent maps.


METAR-TAF: